sensor_id;sensor_type;location;lat;lon;timestamp;P1;durP1;ratioP1;P2;durP2;ratioP2
36653;SDS011;22650;49.350;20.898;2022-08-19T00:02:13;12.13;;;7.50;;
36653;SDS011;22650;49.350;20.898;2022-08-19T00:04:46;11.27;;;7.43;;
36653;SDS011;22650;49.350;20.898;2022-08-19T00:07:24;9.18;;;6.70;;
36653;SDS011;22650;49.350;20.898;2022-08-19T00:09:57;13.40;;;7.90;;
36653;SDS011;22650;49.350;20.898;2022-08-19T00:12:31;12.02;;;7.03;;
36653;SDS011;22650;49.350;20.898;2022-08-19T00:15:17;15.50;;;8.45;;
36653;SDS011;22650;49.350;20.898;2022-08-19T00:17:52;11.75;;;7.97;;
36653;SDS011;22650;49.350;20.898;2022-08-19T00:20:27;12.30;;;8.15;;
36653;SDS011;22650;49.350;20.898;2022-08-19T00:23:00;14.23;;;8.55;;
36653;SDS011;22650;49.350;20.898;2022-08-19T00:25:36;10.30;;;7.13;;
36653;SDS011;22650;49.350;20.898;2022-08-19T00:28:10;12.63;;;8.00;;
36653;SDS011;22650;49.350;20.898;2022-08-19T00:30:45;14.60;;;8.05;;
36653;SDS011;22650;49.350;20.898;2022-08-19T00:33:19;17.65;;;7.80;;
36653;SDS011;22650;49.350;20.898;2022-08-19T00:35:54;14.98;;;7.38;;
36653;SDS011;22650;49.350;20.898;2022-08-19T00:38:28;15.48;;;8.23;;
36653;SDS011;22650;49.350;20.898;2022-08-19T00:41:09;12.75;;;7.35;;
36653;SDS011;22650;49.350;20.898;2022-08-19T00:43:43;10.98;;;7.28;;
36653;SDS011;22650;49.350;20.898;2022-08-19T00:46:30;12.98;;;7.30;;
36653;SDS011;22650;49.350;20.898;2022-08-19T00:49:06;12.77;;;8.02;;
36653;SDS011;22650;49.350;20.898;2022-08-19T00:51:44;15.35;;;8.10;;
36653;SDS011;22650;49.350;20.898;2022-08-19T00:54:19;11.52;;;7.07;;
36653;SDS011;22650;49.350;20.898;2022-08-19T00:57:02;11.50;;;7.77;;
36653;SDS011;22650;49.350;20.898;2022-08-19T00:59:40;12.05;;;7.45;;
36653;SDS011;22650;49.350;20.898;2022-08-19T01:02:35;12.95;;;7.53;;
36653;SDS011;22650;49.350;20.898;2022-08-19T01:05:09;11.95;;;7.55;;
36653;SDS011;22650;49.350;20.898;2022-08-19T01:07:46;11.77;;;7.55;;
36653;SDS011;22650;49.350;20.898;2022-08-19T01:10:23;15.63;;;8.02;;
36653;SDS011;22650;49.350;20.898;2022-08-19T01:13:04;13.87;;;7.57;;
36653;SDS011;22650;49.350;20.898;2022-08-19T01:15:40;14.35;;;7.57;;
36653;SDS011;22650;49.350;20.898;2022-08-19T01:18:17;14.70;;;7.95;;
36653;SDS011;22650;49.350;20.898;2022-08-19T01:20:53;10.27;;;6.82;;
36653;SDS011;22650;49.350;20.898;2022-08-19T01:23:30;14.02;;;6.60;;
36653;SDS011;22650;49.350;20.898;2022-08-19T01:26:15;11.82;;;7.35;;
36653;SDS011;22650;49.350;20.898;2022-08-19T01:28:52;17.23;;;8.82;;
36653;SDS011;22650;49.350;20.898;2022-08-19T01:31:31;13.48;;;7.78;;
36653;SDS011;22650;49.350;20.898;2022-08-19T01:34:05;12.93;;;7.45;;
36653;SDS011;22650;49.350;20.898;2022-08-19T01:36:41;10.77;;;7.25;;
36653;SDS011;22650;49.350;20.898;2022-08-19T01:39:19;10.27;;;7.68;;
36653;SDS011;22650;49.350;20.898;2022-08-19T01:41:54;13.00;;;7.10;;
36653;SDS011;22650;49.350;20.898;2022-08-19T01:44:27;9.68;;;6.25;;
36653;SDS011;22650;49.350;20.898;2022-08-19T01:47:01;11.15;;;7.07;;
36653;SDS011;22650;49.350;20.898;2022-08-19T01:49:36;13.50;;;7.38;;
36653;SDS011;22650;49.350;20.898;2022-08-19T01:52:09;11.48;;;7.45;;
36653;SDS011;22650;49.350;20.898;2022-08-19T01:54:45;9.27;;;6.55;;
36653;SDS011;22650;49.350;20.898;2022-08-19T01:57:18;11.57;;;6.78;;
36653;SDS011;22650;49.350;20.898;2022-08-19T01:59:52;9.68;;;7.00;;
36653;SDS011;22650;49.350;20.898;2022-08-19T02:02:25;10.75;;;6.90;;
36653;SDS011;22650;49.350;20.898;2022-08-19T02:04:59;10.07;;;6.75;;
36653;SDS011;22650;49.350;20.898;2022-08-19T02:07:33;8.32;;;5.85;;
36653;SDS011;22650;49.350;20.898;2022-08-19T02:10:14;8.40;;;5.88;;
36653;SDS011;22650;49.350;20.898;2022-08-19T02:12:49;9.95;;;6.28;;
36653;SDS011;22650;49.350;20.898;2022-08-19T02:15:23;11.75;;;6.38;;
36653;SDS011;22650;49.350;20.898;2022-08-19T02:17:57;12.27;;;7.72;;
36653;SDS011;22650;49.350;20.898;2022-08-19T02:20:30;12.23;;;7.72;;
36653;SDS011;22650;49.350;20.898;2022-08-19T02:23:04;11.82;;;6.03;;
36653;SDS011;22650;49.350;20.898;2022-08-19T02:25:48;12.32;;;7.25;;
36653;SDS011;22650;49.350;20.898;2022-08-19T02:28:24;11.05;;;7.15;;
36653;SDS011;22650;49.350;20.898;2022-08-19T02:30:58;13.77;;;6.85;;
36653;SDS011;22650;49.350;20.898;2022-08-19T02:33:32;10.30;;;6.43;;
36653;SDS011;22650;49.350;20.898;2022-08-19T02:36:06;12.43;;;7.13;;
36653;SDS011;22650;49.350;20.898;2022-08-19T02:38:41;11.10;;;7.35;;
36653;SDS011;22650;49.350;20.898;2022-08-19T02:41:28;11.70;;;7.53;;
36653;SDS011;22650;49.350;20.898;2022-08-19T02:44:03;11.73;;;6.57;;
36653;SDS011;22650;49.350;20.898;2022-08-19T02:46:56;13.20;;;7.20;;
36653;SDS011;22650;49.350;20.898;2022-08-19T02:49:31;11.02;;;6.93;;
36653;SDS011;22650;49.350;20.898;2022-08-19T02:52:05;9.18;;;6.93;;
36653;SDS011;22650;49.350;20.898;2022-08-19T02:54:39;11.20;;;7.70;;
36653;SDS011;22650;49.350;20.898;2022-08-19T02:57:13;11.15;;;7.53;;
36653;SDS011;22650;49.350;20.898;2022-08-19T02:59:47;11.25;;;7.13;;
36653;SDS011;22650;49.350;20.898;2022-08-19T03:02:21;11.45;;;6.88;;
36653;SDS011;22650;49.350;20.898;2022-08-19T03:04:54;8.85;;;6.65;;
36653;SDS011;22650;49.350;20.898;2022-08-19T03:07:28;8.25;;;6.43;;
36653;SDS011;22650;49.350;20.898;2022-08-19T03:10:02;10.10;;;6.07;;
36653;SDS011;22650;49.350;20.898;2022-08-19T03:12:38;8.68;;;5.80;;
36653;SDS011;22650;49.350;20.898;2022-08-19T03:15:12;10.68;;;7.03;;
36653;SDS011;22650;49.350;20.898;2022-08-19T03:17:46;12.23;;;8.02;;
36653;SDS011;22650;49.350;20.898;2022-08-19T03:20:19;13.15;;;6.60;;
36653;SDS011;22650;49.350;20.898;2022-08-19T03:22:53;9.30;;;6.53;;
36653;SDS011;22650;49.350;20.898;2022-08-19T03:25:26;10.77;;;6.97;;
36653;SDS011;22650;49.350;20.898;2022-08-19T03:28:01;11.82;;;7.72;;
36653;SDS011;22650;49.350;20.898;2022-08-19T03:30:35;10.43;;;7.22;;
36653;SDS011;22650;49.350;20.898;2022-08-19T03:33:12;11.02;;;6.05;;
36653;SDS011;22650;49.350;20.898;2022-08-19T03:35:58;12.30;;;6.85;;
36653;SDS011;22650;49.350;20.898;2022-08-19T03:38:33;10.73;;;6.72;;
36653;SDS011;22650;49.350;20.898;2022-08-19T03:41:08;10.45;;;7.03;;
36653;SDS011;22650;49.350;20.898;2022-08-19T03:43:45;14.13;;;7.20;;
36653;SDS011;22650;49.350;20.898;2022-08-19T03:46:20;10.45;;;6.57;;
36653;SDS011;22650;49.350;20.898;2022-08-19T03:48:56;10.18;;;6.50;;
36653;SDS011;22650;49.350;20.898;2022-08-19T03:51:32;9.98;;;6.45;;
36653;SDS011;22650;49.350;20.898;2022-08-19T03:54:08;11.07;;;6.88;;
36653;SDS011;22650;49.350;20.898;2022-08-19T03:56:45;9.18;;;6.47;;
36653;SDS011;22650;49.350;20.898;2022-08-19T03:59:23;10.07;;;7.18;;
36653;SDS011;22650;49.350;20.898;2022-08-19T04:02:00;17.33;;;7.10;;
36653;SDS011;22650;49.350;20.898;2022-08-19T04:04:35;14.27;;;8.05;;
36653;SDS011;22650;49.350;20.898;2022-08-19T04:07:09;12.30;;;7.68;;
36653;SDS011;22650;49.350;20.898;2022-08-19T04:09:47;11.27;;;6.88;;
36653;SDS011;22650;49.350;20.898;2022-08-19T04:12:22;10.80;;;6.35;;
36653;SDS011;22650;49.350;20.898;2022-08-19T04:14:57;16.17;;;7.55;;
36653;SDS011;22650;49.350;20.898;2022-08-19T04:17:31;14.50;;;7.50;;
36653;SDS011;22650;49.350;20.898;2022-08-19T04:20:05;15.07;;;8.15;;
36653;SDS011;22650;49.350;20.898;2022-08-19T04:22:39;11.02;;;7.65;;
36653;SDS011;22650;49.350;20.898;2022-08-19T04:25:12;12.25;;;8.38;;
36653;SDS011;22650;49.350;20.898;2022-08-19T04:27:46;12.48;;;7.90;;
36653;SDS011;22650;49.350;20.898;2022-08-19T04:30:21;10.18;;;7.05;;
36653;SDS011;22650;49.350;20.898;2022-08-19T04:32:55;13.10;;;7.75;;
36653;SDS011;22650;49.350;20.898;2022-08-19T04:35:28;11.18;;;7.60;;
36653;SDS011;22650;49.350;20.898;2022-08-19T04:38:08;16.75;;;8.27;;
36653;SDS011;22650;49.350;20.898;2022-08-19T04:40:43;13.25;;;8.38;;
36653;SDS011;22650;49.350;20.898;2022-08-19T04:43:37;15.23;;;8.10;;
36653;SDS011;22650;49.350;20.898;2022-08-19T04:46:12;12.15;;;7.82;;
36653;SDS011;22650;49.350;20.898;2022-08-19T04:49:07;11.82;;;7.72;;
36653;SDS011;22650;49.350;20.898;2022-08-19T04:51:45;12.98;;;8.45;;
36653;SDS011;22650;49.350;20.898;2022-08-19T04:54:20;12.00;;;7.80;;
36653;SDS011;22650;49.350;20.898;2022-08-19T04:57:09;14.23;;;8.68;;
36653;SDS011;22650;49.350;20.898;2022-08-19T04:59:42;16.60;;;8.55;;
36653;SDS011;22650;49.350;20.898;2022-08-19T05:02:17;15.27;;;8.88;;
36653;SDS011;22650;49.350;20.898;2022-08-19T05:04:51;12.07;;;8.82;;
36653;SDS011;22650;49.350;20.898;2022-08-19T05:07:28;11.93;;;7.85;;
36653;SDS011;22650;49.350;20.898;2022-08-19T05:10:02;16.23;;;7.72;;
36653;SDS011;22650;49.350;20.898;2022-08-19T05:12:37;18.02;;;8.63;;
36653;SDS011;22650;49.350;20.898;2022-08-19T05:15:10;16.10;;;8.88;;
36653;SDS011;22650;49.350;20.898;2022-08-19T05:17:45;11.93;;;8.00;;
36653;SDS011;22650;49.350;20.898;2022-08-19T05:20:33;13.80;;;9.18;;
36653;SDS011;22650;49.350;20.898;2022-08-19T05:23:24;14.13;;;9.00;;
36653;SDS011;22650;49.350;20.898;2022-08-19T05:25:57;14.32;;;9.90;;
36653;SDS011;22650;49.350;20.898;2022-08-19T05:28:31;17.88;;;10.60;;
36653;SDS011;22650;49.350;20.898;2022-08-19T05:31:04;12.82;;;8.95;;
36653;SDS011;22650;49.350;20.898;2022-08-19T05:33:39;13.07;;;9.52;;
36653;SDS011;22650;49.350;20.898;2022-08-19T05:36:13;15.63;;;10.38;;
36653;SDS011;22650;49.350;20.898;2022-08-19T05:38:47;21.13;;;10.32;;
36653;SDS011;22650;49.350;20.898;2022-08-19T05:41:22;15.23;;;9.00;;
36653;SDS011;22650;49.350;20.898;2022-08-19T05:44:03;14.27;;;9.90;;
36653;SDS011;22650;49.350;20.898;2022-08-19T05:46:41;16.02;;;9.90;;
36653;SDS011;22650;49.350;20.898;2022-08-19T05:49:20;15.25;;;8.98;;
36653;SDS011;22650;49.350;20.898;2022-08-19T05:51:55;11.82;;;8.25;;
36653;SDS011;22650;49.350;20.898;2022-08-19T05:54:28;17.77;;;9.02;;
36653;SDS011;22650;49.350;20.898;2022-08-19T05:57:02;12.93;;;8.02;;
36653;SDS011;22650;49.350;20.898;2022-08-19T05:59:36;15.32;;;8.90;;
36653;SDS011;22650;49.350;20.898;2022-08-19T06:02:10;15.80;;;9.10;;
36653;SDS011;22650;49.350;20.898;2022-08-19T06:04:46;12.98;;;7.75;;
36653;SDS011;22650;49.350;20.898;2022-08-19T06:07:19;15.32;;;8.65;;
36653;SDS011;22650;49.350;20.898;2022-08-19T06:09:53;14.15;;;8.05;;
36653;SDS011;22650;49.350;20.898;2022-08-19T06:12:32;13.60;;;8.13;;
36653;SDS011;22650;49.350;20.898;2022-08-19T06:15:08;16.30;;;7.90;;
36653;SDS011;22650;49.350;20.898;2022-08-19T06:17:43;13.05;;;8.38;;
36653;SDS011;22650;49.350;20.898;2022-08-19T06:20:18;15.23;;;9.07;;
36653;SDS011;22650;49.350;20.898;2022-08-19T06:23:12;13.35;;;9.10;;
36653;SDS011;22650;49.350;20.898;2022-08-19T06:25:47;13.07;;;8.27;;
36653;SDS011;22650;49.350;20.898;2022-08-19T06:28:21;12.70;;;7.53;;
36653;SDS011;22650;49.350;20.898;2022-08-19T06:30:55;15.15;;;8.23;;
36653;SDS011;22650;49.350;20.898;2022-08-19T06:33:28;13.18;;;7.80;;
36653;SDS011;22650;49.350;20.898;2022-08-19T06:36:03;14.77;;;7.57;;
36653;SDS011;22650;49.350;20.898;2022-08-19T06:38:37;9.20;;;7.50;;
36653;SDS011;22650;49.350;20.898;2022-08-19T06:41:11;9.10;;;6.32;;
36653;SDS011;22650;49.350;20.898;2022-08-19T06:43:44;9.80;;;6.88;;
36653;SDS011;22650;49.350;20.898;2022-08-19T06:46:18;12.77;;;7.43;;
36653;SDS011;22650;49.350;20.898;2022-08-19T06:48:51;11.15;;;6.85;;
36653;SDS011;22650;49.350;20.898;2022-08-19T06:51:27;12.23;;;7.55;;
36653;SDS011;22650;49.350;20.898;2022-08-19T06:54:08;10.75;;;7.50;;
36653;SDS011;22650;49.350;20.898;2022-08-19T06:56:50;9.20;;;6.75;;
36653;SDS011;22650;49.350;20.898;2022-08-19T06:59:24;9.70;;;7.18;;
36653;SDS011;22650;49.350;20.898;2022-08-19T07:02:00;9.80;;;6.47;;
36653;SDS011;22650;49.350;20.898;2022-08-19T07:04:37;9.73;;;6.22;;
36653;SDS011;22650;49.350;20.898;2022-08-19T07:07:14;19.58;;;7.55;;
36653;SDS011;22650;49.350;20.898;2022-08-19T07:09:50;11.32;;;6.53;;
36653;SDS011;22650;49.350;20.898;2022-08-19T07:12:31;9.45;;;6.70;;
36653;SDS011;22650;49.350;20.898;2022-08-19T07:15:09;10.35;;;6.70;;
36653;SDS011;22650;49.350;20.898;2022-08-19T07:17:43;11.90;;;6.95;;
36653;SDS011;22650;49.350;20.898;2022-08-19T07:20:19;9.25;;;6.10;;
36653;SDS011;22650;49.350;20.898;2022-08-19T07:23:00;8.85;;;6.50;;
36653;SDS011;22650;49.350;20.898;2022-08-19T07:25:38;9.30;;;6.15;;
36653;SDS011;22650;49.350;20.898;2022-08-19T07:28:12;10.55;;;5.60;;
36653;SDS011;22650;49.350;20.898;2022-08-19T07:30:55;9.85;;;5.60;;
36653;SDS011;22650;49.350;20.898;2022-08-19T07:33:28;8.25;;;6.10;;
36653;SDS011;22650;49.350;20.898;2022-08-19T07:36:04;13.10;;;6.45;;
36653;SDS011;22650;49.350;20.898;2022-08-19T07:38:40;7.85;;;5.53;;
36653;SDS011;22650;49.350;20.898;2022-08-19T07:41:16;8.15;;;5.43;;
36653;SDS011;22650;49.350;20.898;2022-08-19T07:43:52;8.77;;;6.18;;
36653;SDS011;22650;49.350;20.898;2022-08-19T07:46:25;8.52;;;5.82;;
36653;SDS011;22650;49.350;20.898;2022-08-19T07:48:59;9.05;;;5.82;;
36653;SDS011;22650;49.350;20.898;2022-08-19T07:51:33;16.80;;;5.72;;
36653;SDS011;22650;49.350;20.898;2022-08-19T08:04:02;7.32;;;5.32;;
36653;SDS011;22650;49.350;20.898;2022-08-19T08:09:44;10.25;;;5.80;;
36653;SDS011;22650;49.350;20.898;2022-08-19T08:12:21;8.20;;;6.10;;
36653;SDS011;22650;49.350;20.898;2022-08-19T08:15:10;6.72;;;5.38;;
36653;SDS011;22650;49.350;20.898;2022-08-19T08:17:47;8.35;;;5.32;;
36653;SDS011;22650;49.350;20.898;2022-08-19T08:20:23;7.78;;;4.75;;
36653;SDS011;22650;49.350;20.898;2022-08-19T08:22:57;11.43;;;5.35;;
36653;SDS011;22650;49.350;20.898;2022-08-19T08:25:47;6.90;;;5.45;;
36653;SDS011;22650;49.350;20.898;2022-08-19T08:28:21;10.02;;;4.70;;
36653;SDS011;22650;49.350;20.898;2022-08-19T08:30:57;6.90;;;5.05;;
36653;SDS011;22650;49.350;20.898;2022-08-19T08:33:31;7.90;;;5.07;;
36653;SDS011;22650;49.350;20.898;2022-08-19T08:36:08;8.30;;;5.18;;
36653;SDS011;22650;49.350;20.898;2022-08-19T08:38:42;7.78;;;5.28;;
36653;SDS011;22650;49.350;20.898;2022-08-19T08:41:19;8.27;;;5.35;;
36653;SDS011;22650;49.350;20.898;2022-08-19T08:43:59;6.78;;;5.28;;
36653;SDS011;22650;49.350;20.898;2022-08-19T08:46:36;5.40;;;4.55;;
36653;SDS011;22650;49.350;20.898;2022-08-19T08:49:17;5.78;;;4.70;;
36653;SDS011;22650;49.350;20.898;2022-08-19T08:52:09;8.63;;;5.43;;
36653;SDS011;22650;49.350;20.898;2022-08-19T08:54:48;9.88;;;5.35;;
36653;SDS011;22650;49.350;20.898;2022-08-19T08:57:27;9.18;;;5.15;;
36653;SDS011;22650;49.350;20.898;2022-08-19T09:00:12;6.25;;;4.80;;
36653;SDS011;22650;49.350;20.898;2022-08-19T09:02:52;8.40;;;4.97;;
36653;SDS011;22650;49.350;20.898;2022-08-19T09:05:30;8.57;;;4.60;;
36653;SDS011;22650;49.350;20.898;2022-08-19T09:08:23;8.10;;;4.57;;
36653;SDS011;22650;49.350;20.898;2022-08-19T09:11:05;5.95;;;4.55;;
36653;SDS011;22650;49.350;20.898;2022-08-19T09:13:45;5.10;;;4.18;;
36653;SDS011;22650;49.350;20.898;2022-08-19T09:16:28;12.23;;;4.85;;
36653;SDS011;22650;49.350;20.898;2022-08-19T09:19:04;8.00;;;5.10;;
36653;SDS011;22650;49.350;20.898;2022-08-19T09:21:38;5.70;;;4.55;;
36653;SDS011;22650;49.350;20.898;2022-08-19T09:24:13;7.40;;;5.20;;
36653;SDS011;22650;49.350;20.898;2022-08-19T09:26:47;7.65;;;5.03;;
36653;SDS011;22650;49.350;20.898;2022-08-19T09:29:23;7.82;;;5.35;;
36653;SDS011;22650;49.350;20.898;2022-08-19T09:31:56;8.30;;;5.10;;
36653;SDS011;22650;49.350;20.898;2022-08-19T09:34:31;8.55;;;4.32;;
36653;SDS011;22650;49.350;20.898;2022-08-19T09:37:08;5.82;;;4.78;;
36653;SDS011;22650;49.350;20.898;2022-08-19T09:39:47;10.35;;;4.93;;
36653;SDS011;22650;49.350;20.898;2022-08-19T09:42:20;9.07;;;4.55;;
36653;SDS011;22650;49.350;20.898;2022-08-19T09:45:01;13.07;;;5.03;;
36653;SDS011;22650;49.350;20.898;2022-08-19T09:47:41;6.53;;;4.97;;
36653;SDS011;22650;49.350;20.898;2022-08-19T09:50:14;6.20;;;4.28;;
36653;SDS011;22650;49.350;20.898;2022-08-19T09:52:49;7.07;;;4.72;;
36653;SDS011;22650;49.350;20.898;2022-08-19T09:55:29;7.38;;;4.70;;
36653;SDS011;22650;49.350;20.898;2022-08-19T09:58:03;6.80;;;4.95;;
36653;SDS011;22650;49.350;20.898;2022-08-19T10:00:37;12.60;;;4.45;;
36653;SDS011;22650;49.350;20.898;2022-08-19T10:03:10;5.72;;;4.28;;
36653;SDS011;22650;49.350;20.898;2022-08-19T10:05:44;6.80;;;4.60;;
36653;SDS011;22650;49.350;20.898;2022-08-19T10:08:27;6.78;;;4.78;;
36653;SDS011;22650;49.350;20.898;2022-08-19T10:11:03;5.38;;;4.72;;
36653;SDS011;22650;49.350;20.898;2022-08-19T10:13:57;6.82;;;4.25;;
36653;SDS011;22650;49.350;20.898;2022-08-19T10:16:31;6.13;;;4.55;;
36653;SDS011;22650;49.350;20.898;2022-08-19T10:19:10;5.20;;;4.22;;
36653;SDS011;22650;49.350;20.898;2022-08-19T10:21:44;5.85;;;4.50;;
36653;SDS011;22650;49.350;20.898;2022-08-19T10:24:20;5.90;;;4.47;;
36653;SDS011;22650;49.350;20.898;2022-08-19T10:26:57;5.35;;;4.85;;
36653;SDS011;22650;49.350;20.898;2022-08-19T10:29:30;6.85;;;4.53;;
36653;SDS011;22650;49.350;20.898;2022-08-19T10:32:06;5.32;;;4.65;;
36653;SDS011;22650;49.350;20.898;2022-08-19T10:34:41;6.18;;;4.68;;
36653;SDS011;22650;49.350;20.898;2022-08-19T10:37:19;5.05;;;4.05;;
36653;SDS011;22650;49.350;20.898;2022-08-19T10:39:59;9.32;;;5.43;;
36653;SDS011;22650;49.350;20.898;2022-08-19T10:42:35;7.03;;;4.55;;
36653;SDS011;22650;49.350;20.898;2022-08-19T10:45:10;5.43;;;4.30;;
36653;SDS011;22650;49.350;20.898;2022-08-19T10:47:43;6.25;;;4.20;;
36653;SDS011;22650;49.350;20.898;2022-08-19T10:50:18;5.40;;;4.20;;
36653;SDS011;22650;49.350;20.898;2022-08-19T10:53:09;5.30;;;4.33;;
36653;SDS011;22650;49.350;20.898;2022-08-19T10:55:44;9.02;;;4.85;;
36653;SDS011;22650;49.350;20.898;2022-08-19T10:58:36;7.63;;;4.40;;
36653;SDS011;22650;49.350;20.898;2022-08-19T11:01:11;6.13;;;4.78;;
36653;SDS011;22650;49.350;20.898;2022-08-19T11:03:44;5.70;;;4.43;;
36653;SDS011;22650;49.350;20.898;2022-08-19T11:06:24;11.02;;;4.70;;
36653;SDS011;22650;49.350;20.898;2022-08-19T11:08:57;10.43;;;4.05;;
36653;SDS011;22650;49.350;20.898;2022-08-19T11:11:32;6.15;;;4.43;;
36653;SDS011;22650;49.350;20.898;2022-08-19T11:14:13;6.30;;;4.53;;
36653;SDS011;22650;49.350;20.898;2022-08-19T11:16:49;9.80;;;4.90;;
36653;SDS011;22650;49.350;20.898;2022-08-19T11:19:24;6.57;;;5.20;;
36653;SDS011;22650;49.350;20.898;2022-08-19T11:21:57;6.13;;;4.65;;
36653;SDS011;22650;49.350;20.898;2022-08-19T11:24:34;5.10;;;4.60;;
36653;SDS011;22650;49.350;20.898;2022-08-19T11:27:09;6.05;;;4.85;;
36653;SDS011;22650;49.350;20.898;2022-08-19T11:29:44;5.85;;;4.90;;
36653;SDS011;22650;49.350;20.898;2022-08-19T11:32:17;7.72;;;5.65;;
36653;SDS011;22650;49.350;20.898;2022-08-19T11:34:51;6.82;;;5.63;;
36653;SDS011;22650;49.350;20.898;2022-08-19T11:37:27;8.13;;;5.07;;
36653;SDS011;22650;49.350;20.898;2022-08-19T11:40:00;6.88;;;5.05;;
36653;SDS011;22650;49.350;20.898;2022-08-19T11:42:34;8.80;;;4.78;;
36653;SDS011;22650;49.350;20.898;2022-08-19T11:45:27;8.77;;;5.43;;
36653;SDS011;22650;49.350;20.898;2022-08-19T11:48:02;11.23;;;5.75;;
36653;SDS011;22650;49.350;20.898;2022-08-19T11:50:35;7.95;;;5.55;;
36653;SDS011;22650;49.350;20.898;2022-08-19T11:53:12;7.43;;;4.95;;
36653;SDS011;22650;49.350;20.898;2022-08-19T11:55:46;8.60;;;4.72;;
36653;SDS011;22650;49.350;20.898;2022-08-19T11:58:20;7.00;;;4.80;;
36653;SDS011;22650;49.350;20.898;2022-08-19T12:00:55;7.57;;;4.60;;
36653;SDS011;22650;49.350;20.898;2022-08-19T12:03:29;6.60;;;4.75;;
36653;SDS011;22650;49.350;20.898;2022-08-19T12:06:03;5.15;;;4.65;;
36653;SDS011;22650;49.350;20.898;2022-08-19T12:08:37;7.38;;;4.63;;
36653;SDS011;22650;49.350;20.898;2022-08-19T12:11:11;8.63;;;5.15;;
36653;SDS011;22650;49.350;20.898;2022-08-19T12:13:46;8.40;;;4.95;;
36653;SDS011;22650;49.350;20.898;2022-08-19T12:16:22;6.85;;;5.15;;
36653;SDS011;22650;49.350;20.898;2022-08-19T12:18:57;6.88;;;4.78;;
36653;SDS011;22650;49.350;20.898;2022-08-19T12:21:35;8.25;;;5.20;;
36653;SDS011;22650;49.350;20.898;2022-08-19T12:24:08;6.75;;;5.35;;
36653;SDS011;22650;49.350;20.898;2022-08-19T12:26:42;7.57;;;5.57;;
36653;SDS011;22650;49.350;20.898;2022-08-19T12:29:24;9.43;;;5.60;;
36653;SDS011;22650;49.350;20.898;2022-08-19T12:32:02;9.15;;;5.03;;
36653;SDS011;22650;49.350;20.898;2022-08-19T12:34:36;7.38;;;5.25;;
36653;SDS011;22650;49.350;20.898;2022-08-19T12:37:09;5.50;;;5.00;;
36653;SDS011;22650;49.350;20.898;2022-08-19T12:39:43;6.10;;;5.32;;
36653;SDS011;22650;49.350;20.898;2022-08-19T12:42:17;6.78;;;5.10;;
36653;SDS011;22650;49.350;20.898;2022-08-19T12:44:53;5.80;;;4.38;;
36653;SDS011;22650;49.350;20.898;2022-08-19T12:47:28;5.75;;;4.97;;
36653;SDS011;22650;49.350;20.898;2022-08-19T12:50:03;6.22;;;5.28;;
36653;SDS011;22650;49.350;20.898;2022-08-19T12:52:39;8.32;;;5.50;;
36653;SDS011;22650;49.350;20.898;2022-08-19T12:55:14;6.90;;;5.60;;
36653;SDS011;22650;49.350;20.898;2022-08-19T12:57:47;6.15;;;5.22;;
36653;SDS011;22650;49.350;20.898;2022-08-19T13:00:22;6.22;;;4.97;;
36653;SDS011;22650;49.350;20.898;2022-08-19T13:02:57;9.27;;;5.57;;
36653;SDS011;22650;49.350;20.898;2022-08-19T13:05:31;10.50;;;4.68;;
36653;SDS011;22650;49.350;20.898;2022-08-19T13:08:06;11.80;;;5.72;;
36653;SDS011;22650;49.350;20.898;2022-08-19T13:10:39;7.30;;;5.40;;
36653;SDS011;22650;49.350;20.898;2022-08-19T13:13:13;8.60;;;5.22;;
36653;SDS011;22650;49.350;20.898;2022-08-19T13:15:46;7.47;;;5.47;;
36653;SDS011;22650;49.350;20.898;2022-08-19T13:18:21;6.85;;;5.55;;
36653;SDS011;22650;49.350;20.898;2022-08-19T13:20:55;7.18;;;5.43;;
36653;SDS011;22650;49.350;20.898;2022-08-19T13:23:29;6.70;;;5.05;;
36653;SDS011;22650;49.350;20.898;2022-08-19T13:26:03;7.75;;;4.82;;
36653;SDS011;22650;49.350;20.898;2022-08-19T13:28:39;7.97;;;5.32;;
36653;SDS011;22650;49.350;20.898;2022-08-19T13:31:33;6.65;;;4.88;;
36653;SDS011;22650;49.350;20.898;2022-08-19T13:34:28;7.93;;;5.22;;
36653;SDS011;22650;49.350;20.898;2022-08-19T13:37:04;6.55;;;5.45;;
36653;SDS011;22650;49.350;20.898;2022-08-19T13:39:38;7.20;;;5.28;;
36653;SDS011;22650;49.350;20.898;2022-08-19T13:42:11;5.63;;;4.75;;
36653;SDS011;22650;49.350;20.898;2022-08-19T13:44:45;6.20;;;5.55;;
36653;SDS011;22650;49.350;20.898;2022-08-19T13:47:19;7.65;;;5.03;;
36653;SDS011;22650;49.350;20.898;2022-08-19T13:49:54;9.15;;;5.40;;
36653;SDS011;22650;49.350;20.898;2022-08-19T13:52:27;7.78;;;5.15;;
36653;SDS011;22650;49.350;20.898;2022-08-19T13:55:00;8.57;;;5.18;;
36653;SDS011;22650;49.350;20.898;2022-08-19T13:57:36;5.97;;;5.13;;
36653;SDS011;22650;49.350;20.898;2022-08-19T14:00:13;9.52;;;5.10;;
36653;SDS011;22650;49.350;20.898;2022-08-19T14:02:50;5.68;;;5.07;;
36653;SDS011;22650;49.350;20.898;2022-08-19T14:05:27;6.95;;;4.88;;
36653;SDS011;22650;49.350;20.898;2022-08-19T14:08:03;8.55;;;5.20;;
36653;SDS011;22650;49.350;20.898;2022-08-19T14:10:36;10.70;;;5.60;;
36653;SDS011;22650;49.350;20.898;2022-08-19T14:13:12;12.82;;;5.57;;
36653;SDS011;22650;49.350;20.898;2022-08-19T14:15:47;9.30;;;5.95;;
36653;SDS011;22650;49.350;20.898;2022-08-19T14:18:21;5.68;;;5.05;;
36653;SDS011;22650;49.350;20.898;2022-08-19T14:21:00;6.90;;;5.68;;
36653;SDS011;22650;49.350;20.898;2022-08-19T14:23:34;10.23;;;5.82;;
36653;SDS011;22650;49.350;20.898;2022-08-19T14:26:09;10.35;;;5.20;;
36653;SDS011;22650;49.350;20.898;2022-08-19T14:28:45;5.97;;;4.65;;
36653;SDS011;22650;49.350;20.898;2022-08-19T14:31:18;5.88;;;5.00;;
36653;SDS011;22650;49.350;20.898;2022-08-19T14:34:01;10.38;;;5.30;;
36653;SDS011;22650;49.350;20.898;2022-08-19T14:36:36;7.35;;;5.30;;
36653;SDS011;22650;49.350;20.898;2022-08-19T14:39:10;8.10;;;5.65;;
36653;SDS011;22650;49.350;20.898;2022-08-19T14:41:43;7.47;;;5.38;;
36653;SDS011;22650;49.350;20.898;2022-08-19T14:44:17;8.68;;;4.88;;
36653;SDS011;22650;49.350;20.898;2022-08-19T14:46:50;6.40;;;5.10;;
36653;SDS011;22650;49.350;20.898;2022-08-19T14:49:25;6.95;;;5.72;;
36653;SDS011;22650;49.350;20.898;2022-08-19T14:52:16;6.70;;;5.53;;
36653;SDS011;22650;49.350;20.898;2022-08-19T14:54:50;9.85;;;5.47;;
36653;SDS011;22650;49.350;20.898;2022-08-19T14:57:24;7.53;;;5.53;;
36653;SDS011;22650;49.350;20.898;2022-08-19T14:59:58;6.10;;;5.45;;
36653;SDS011;22650;49.350;20.898;2022-08-19T15:02:32;6.05;;;5.07;;
36653;SDS011;22650;49.350;20.898;2022-08-19T15:05:06;8.43;;;5.07;;
36653;SDS011;22650;49.350;20.898;2022-08-19T15:07:42;7.45;;;5.40;;
36653;SDS011;22650;49.350;20.898;2022-08-19T15:10:15;11.27;;;5.75;;
36653;SDS011;22650;49.350;20.898;2022-08-19T15:12:49;5.45;;;4.88;;
36653;SDS011;22650;49.350;20.898;2022-08-19T15:15:24;5.88;;;4.85;;
36653;SDS011;22650;49.350;20.898;2022-08-19T15:17:59;6.50;;;5.15;;
36653;SDS011;22650;49.350;20.898;2022-08-19T15:20:34;6.30;;;4.68;;
36653;SDS011;22650;49.350;20.898;2022-08-19T15:23:08;7.07;;;5.40;;
36653;SDS011;22650;49.350;20.898;2022-08-19T15:25:43;8.85;;;5.65;;
36653;SDS011;22650;49.350;20.898;2022-08-19T15:28:17;10.18;;;5.80;;
36653;SDS011;22650;49.350;20.898;2022-08-19T15:30:50;8.93;;;5.10;;
36653;SDS011;22650;49.350;20.898;2022-08-19T15:33:24;25.92;;;6.82;;
36653;SDS011;22650;49.350;20.898;2022-08-19T15:35:58;9.15;;;5.45;;